OAL323 LGAV-OPIS
Flight info
| Callsign | OAL323 |
|---|---|
| Flight time | 4h 58m |
| Altitude | 37000 |
| Route | KRO DCT OGSIL UN604 SOSIR UG802 IMR UR32 HAY UT54 SIV UA4 ERZ UB374 ALVAR/N0469F390 UB374 INDUR N449 DUKAN B449 DOLOS B475 DAVET P173 TAPIS L509 LAJAK/N0462F270 G796 HANGU L509 NONIB J139 KALMI |
| Aircraft | A346/H-SDE2E3FGHIJ3J4J5M1RWXY/LB1D1 |
Departure
| Time | 2026-04-25 11:43 |
|---|---|
| Airport | Athens Eleftherios Venizelos International Airport (LGAV) |
Arrival
| Time | 2026-04-25 16:41 |
|---|---|
| Airport | Islamabad International Airport (OPIS) |
| Time | Latitude | Longitude | Altitude | Speed | Heading |
|---|---|---|---|---|---|
| 2026-04-25 11:33 | 37.92844 | 23.94233 | 310 ft | 0 kts | 217° |
| 2026-04-25 11:37 | 37.92849 | 23.94239 | 310 ft | 3 kts | 220° |
| 2026-04-25 11:37 | 37.92864 | 23.94254 | 305 ft | 3 kts | 220° |
| 2026-04-25 11:37 | 37.92878 | 23.94269 | 305 ft | 3 kts | 220° |
| 2026-04-25 11:38 | 37.92894 | 23.94283 | 304 ft | 3 kts | 184° |
| 2026-04-25 11:38 | 37.92913 | 23.94279 | 306 ft | 3 kts | 138° |
| 2026-04-25 11:38 | 37.92923 | 23.94264 | 305 ft | 0 kts | 112° |
| 2026-04-25 11:39 | 37.92924 | 23.94260 | 305 ft | 0 kts | 112° |
| 2026-04-25 11:39 | 37.92912 | 23.94290 | 304 ft | 6 kts | 118° |
| 2026-04-25 11:40 | 37.92890 | 23.94335 | 306 ft | 7 kts | 123° |
| 2026-04-25 11:40 | 37.92862 | 23.94385 | 310 ft | 8 kts | 126° |
| 2026-04-25 11:40 | 37.92825 | 23.94435 | 308 ft | 8 kts | 147° |
| 2026-04-25 11:40 | 37.92773 | 23.94440 | 308 ft | 8 kts | 196° |
| 2026-04-25 11:41 | 37.92727 | 23.94403 | 308 ft | 8 kts | 216° |
| 2026-04-25 11:41 | 37.92679 | 23.94356 | 309 ft | 9 kts | 216° |
| 2026-04-25 11:41 | 37.92625 | 23.94307 | 310 ft | 9 kts | 212° |
| 2026-04-25 11:41 | 37.92576 | 23.94297 | 309 ft | 4 kts | 150° |
| 2026-04-25 11:42 | 37.92543 | 23.94326 | 310 ft | 8 kts | 141° |
| 2026-04-25 11:42 | 37.92510 | 23.94372 | 312 ft | 9 kts | 129° |
| 2026-04-25 11:42 | 37.92500 | 23.94492 | 312 ft | 6 kts | 64° |
| 2026-04-25 11:42 | 37.92553 | 23.94545 | 313 ft | 27 kts | 36° |
| 2026-04-25 11:43 | 37.92920 | 23.94881 | 305 ft | 103 kts | 37° |
| 2026-04-25 11:43 | 37.93679 | 23.95603 | 315 ft | 170 kts | 39° |
| 2026-04-25 11:43 | 37.94693 | 23.96537 | 1097 ft | 190 kts | 36° |
| 2026-04-25 11:43 | 37.95786 | 23.97585 | 2088 ft | 209 kts | 36° |
| 2026-04-25 11:44 | 37.96975 | 23.98732 | 2692 ft | 219 kts | 37° |
| 2026-04-25 11:44 | 37.98201 | 23.99914 | 3292 ft | 224 kts | 37° |
| 2026-04-25 11:44 | 37.99454 | 24.01120 | 3930 ft | 228 kts | 37° |
| 2026-04-25 11:44 | 38.00302 | 24.01937 | 4503 ft | 227 kts | 38° |
| 2026-04-25 11:45 | 38.01826 | 24.03907 | 5155 ft | 249 kts | 55° |
| 2026-04-25 11:45 | 38.02767 | 24.05806 | 5775 ft | 257 kts | 62° |
| 2026-04-25 11:45 | 38.03592 | 24.07829 | 6558 ft | 259 kts | 67° |
| 2026-04-25 11:45 | 38.04353 | 24.09931 | 7296 ft | 263 kts | 67° |
| 2026-04-25 11:46 | 38.05686 | 24.13812 | 8765 ft | 266 kts | 69° |
| 2026-04-25 11:46 | 38.06417 | 24.15930 | 9631 ft | 268 kts | 68° |
| 2026-04-25 11:46 | 38.07190 | 24.18145 | 10265 ft | 277 kts | 67° |
| 2026-04-25 11:47 | 38.08005 | 24.20450 | 10563 ft | 296 kts | 68° |
| 2026-04-25 11:47 | 38.08883 | 24.22912 | 10829 ft | 316 kts | 67° |
| 2026-04-25 11:47 | 38.09789 | 24.25441 | 11069 ft | 336 kts | 66° |
| 2026-04-25 11:47 | 38.10797 | 24.28237 | 11438 ft | 350 kts | 67° |
| 2026-04-25 11:48 | 38.11820 | 24.31071 | 12049 ft | 356 kts | 66° |
| 2026-04-25 11:48 | 38.12849 | 24.33930 | 12607 ft | 363 kts | 66° |
| 2026-04-25 11:48 | 38.13899 | 24.36853 | 13372 ft | 365 kts | 66° |
| 2026-04-25 11:48 | 38.14960 | 24.39812 | 13976 ft | 371 kts | 66° |
| 2026-04-25 11:49 | 38.15543 | 24.41442 | 14317 ft | 372 kts | 67° |
| 2026-04-25 11:49 | 38.16229 | 24.43358 | 14770 ft | 372 kts | 68° |
| 2026-04-25 11:49 | 38.17303 | 24.46363 | 15352 ft | 377 kts | 67° |
| 2026-04-25 11:49 | 38.18395 | 24.49424 | 15883 ft | 382 kts | 68° |
| 2026-04-25 11:50 | 38.19491 | 24.52499 | 16531 ft | 383 kts | 67° |
| 2026-04-25 11:50 | 38.20599 | 24.55610 | 17009 ft | 390 kts | 68° |
| 2026-04-25 11:50 | 38.21717 | 24.58755 | 17666 ft | 391 kts | 68° |
| 2026-04-25 11:50 | 38.22843 | 24.61922 | 18227 ft | 395 kts | 67° |
| 2026-04-25 11:51 | 38.23983 | 24.65136 | 18654 ft | 400 kts | 67° |
| 2026-04-25 11:51 | 38.25128 | 24.68364 | 19175 ft | 402 kts | 66° |
| 2026-04-25 11:51 | 38.26282 | 24.71622 | 19652 ft | 405 kts | 66° |
| 2026-04-25 11:51 | 38.27443 | 24.74900 | 20170 ft | 407 kts | 66° |
| 2026-04-25 11:52 | 38.28608 | 24.78197 | 20614 ft | 411 kts | 66° |
| 2026-04-25 11:52 | 38.29780 | 24.81517 | 21114 ft | 412 kts | 67° |
| 2026-04-25 11:52 | 38.30959 | 24.84860 | 21567 ft | 415 kts | 66° |
| 2026-04-25 11:52 | 38.32146 | 24.88231 | 22010 ft | 418 kts | 66° |
| 2026-04-25 11:53 | 38.33336 | 24.91614 | 22496 ft | 420 kts | 66° |
| 2026-04-25 11:53 | 38.34535 | 24.95025 | 22923 ft | 423 kts | 66° |
| 2026-04-25 11:53 | 38.35739 | 24.98454 | 23381 ft | 425 kts | 66° |
| 2026-04-25 11:53 | 38.36952 | 25.01916 | 23726 ft | 429 kts | 66° |
| 2026-04-25 11:54 | 38.38170 | 25.05394 | 24183 ft | 430 kts | 67° |
| 2026-04-25 11:54 | 38.39310 | 25.08929 | 24485 ft | 434 kts | 72° |
| 2026-04-25 11:54 | 38.40395 | 25.16422 | 25269 ft | 436 kts | 88° |
| 2026-04-25 11:55 | 38.40390 | 25.20305 | 25594 ft | 439 kts | 91° |
| 2026-04-25 11:55 | 38.40252 | 25.24196 | 26051 ft | 439 kts | 93° |
| 2026-04-25 11:55 | 38.40048 | 25.28104 | 26262 ft | 445 kts | 94° |
| 2026-04-25 11:55 | 38.39816 | 25.32047 | 26668 ft | 446 kts | 94° |
| 2026-04-25 11:56 | 38.39582 | 25.35997 | 26978 ft | 450 kts | 94° |
| 2026-04-25 11:56 | 38.39352 | 25.40008 | 27127 ft | 457 kts | 94° |
| 2026-04-25 11:56 | 38.39129 | 25.44060 | 27550 ft | 458 kts | 94° |
| 2026-04-25 11:56 | 38.38912 | 25.48124 | 27839 ft | 461 kts | 94° |
| 2026-04-25 11:57 | 38.38697 | 25.52223 | 28157 ft | 464 kts | 94° |
| 2026-04-25 11:57 | 38.38483 | 25.56337 | 28504 ft | 466 kts | 94° |
| 2026-04-25 11:57 | 38.38266 | 25.60475 | 28769 ft | 470 kts | 94° |
| 2026-04-25 11:57 | 38.38047 | 25.64643 | 29104 ft | 472 kts | 94° |
| 2026-04-25 11:58 | 38.37825 | 25.68831 | 29354 ft | 476 kts | 94° |
| 2026-04-25 11:58 | 38.37595 | 25.73053 | 29643 ft | 479 kts | 94° |
| 2026-04-25 11:58 | 38.37372 | 25.77233 | 30045 ft | 479 kts | 94° |
| 2026-04-25 11:58 | 38.37146 | 25.81456 | 30459 ft | 477 kts | 94° |
| 2026-04-25 11:59 | 38.36900 | 25.85647 | 31019 ft | 472 kts | 94° |
| 2026-04-25 11:59 | 38.36634 | 25.89800 | 31533 ft | 468 kts | 94° |
| 2026-04-25 11:59 | 38.36357 | 25.93904 | 32184 ft | 460 kts | 94° |
| 2026-04-25 12:00 | 38.35799 | 26.01989 | 32867 ft | 461 kts | 94° |
| 2026-04-25 12:00 | 38.35518 | 26.06064 | 33178 ft | 461 kts | 94° |
| 2026-04-25 12:00 | 38.34970 | 26.14167 | 34049 ft | 456 kts | 93° |
| 2026-04-25 12:01 | 38.34818 | 26.18194 | 34367 ft | 455 kts | 91° |
| 2026-04-25 12:01 | 38.34733 | 26.22234 | 34544 ft | 457 kts | 91° |
| 2026-04-25 12:01 | 38.34637 | 26.26288 | 34731 ft | 459 kts | 91° |
| 2026-04-25 12:02 | 38.34239 | 26.38620 | 34995 ft | 467 kts | 92° |
| 2026-04-25 12:02 | 38.33926 | 26.46863 | 34988 ft | 465 kts | 92° |
| 2026-04-25 12:03 | 38.33606 | 26.55075 | 35002 ft | 464 kts | 92° |
| 2026-04-25 12:03 | 38.33445 | 26.59186 | 35135 ft | 465 kts | 93° |
| 2026-04-25 12:03 | 38.33283 | 26.63304 | 35284 ft | 467 kts | 93° |
| 2026-04-25 12:04 | 38.33119 | 26.67447 | 35422 ft | 469 kts | 93° |
| 2026-04-25 12:04 | 38.32952 | 26.71599 | 35578 ft | 471 kts | 93° |
| 2026-04-25 12:04 | 38.32784 | 26.75774 | 35725 ft | 471 kts | 93° |
| 2026-04-25 12:04 | 38.32614 | 26.79942 | 35873 ft | 472 kts | 94° |
| 2026-04-25 12:05 | 38.32443 | 26.84118 | 36028 ft | 472 kts | 94° |
| 2026-04-25 12:05 | 38.32271 | 26.88293 | 36170 ft | 473 kts | 94° |
| 2026-04-25 12:05 | 38.32097 | 26.92473 | 36328 ft | 473 kts | 94° |
| 2026-04-25 12:05 | 38.31924 | 26.96669 | 36482 ft | 474 kts | 93° |
| 2026-04-25 12:06 | 38.31996 | 27.00817 | 36635 ft | 475 kts | 85° |
| 2026-04-25 12:06 | 38.32437 | 27.04981 | 36792 ft | 475 kts | 81° |
| 2026-04-25 12:06 | 38.32991 | 27.09127 | 36957 ft | 476 kts | 80° |
| 2026-04-25 12:06 | 38.33601 | 27.13273 | 37111 ft | 476 kts | 80° |
| 2026-04-25 12:07 | 38.34237 | 27.17412 | 37266 ft | 476 kts | 79° |
| 2026-04-25 12:07 | 38.34882 | 27.21557 | 37409 ft | 477 kts | 80° |
| 2026-04-25 12:07 | 38.35524 | 27.25699 | 37573 ft | 478 kts | 80° |
| 2026-04-25 12:07 | 38.36164 | 27.29867 | 37732 ft | 479 kts | 80° |
| 2026-04-25 12:08 | 38.36797 | 27.34034 | 37905 ft | 480 kts | 80° |
| 2026-04-25 12:08 | 38.37425 | 27.38207 | 38058 ft | 480 kts | 80° |
| 2026-04-25 12:08 | 38.38051 | 27.42387 | 38230 ft | 480 kts | 81° |
| 2026-04-25 12:08 | 38.38674 | 27.46566 | 38399 ft | 480 kts | 81° |
| 2026-04-25 12:09 | 38.39297 | 27.50745 | 38560 ft | 480 kts | 80° |
| 2026-04-25 12:09 | 38.39919 | 27.54930 | 38710 ft | 481 kts | 80° |
| 2026-04-25 12:09 | 38.40541 | 27.59121 | 38840 ft | 481 kts | 80° |
| 2026-04-25 12:09 | 38.41163 | 27.63320 | 38947 ft | 482 kts | 80° |
| 2026-04-25 12:10 | 38.42401 | 27.71709 | 38977 ft | 481 kts | 80° |
| 2026-04-25 12:10 | 38.43623 | 27.80029 | 38977 ft | 480 kts | 80° |
| 2026-04-25 12:11 | 38.44845 | 27.88399 | 38972 ft | 480 kts | 80° |
| 2026-04-25 12:11 | 38.46061 | 27.96773 | 38974 ft | 480 kts | 81° |
| 2026-04-25 12:12 | 38.47075 | 28.03788 | 38979 ft | 480 kts | 80° |
| 2026-04-25 12:12 | 38.48474 | 28.13513 | 38976 ft | 480 kts | 81° |
| 2026-04-25 12:13 | 38.49673 | 28.21900 | 38975 ft | 480 kts | 81° |
| 2026-04-25 12:13 | 38.51213 | 28.30195 | 38974 ft | 481 kts | 76° |
| 2026-04-25 12:14 | 38.52997 | 28.38436 | 38969 ft | 481 kts | 75° |
| 2026-04-25 12:14 | 38.54823 | 28.46674 | 38971 ft | 483 kts | 75° |
| 2026-04-25 12:15 | 38.56648 | 28.54942 | 38970 ft | 483 kts | 75° |
| 2026-04-25 12:15 | 38.58090 | 28.63284 | 38973 ft | 480 kts | 82° |
| 2026-04-25 12:16 | 38.58901 | 28.70314 | 38971 ft | 481 kts | 83° |
| 2026-04-25 12:16 | 38.59782 | 28.78813 | 38975 ft | 483 kts | 84° |
| 2026-04-25 12:17 | 38.60643 | 28.87338 | 38974 ft | 483 kts | 84° |
| 2026-04-25 12:17 | 38.61510 | 28.95862 | 38966 ft | 484 kts | 84° |
| 2026-04-25 12:18 | 38.62377 | 29.04389 | 38971 ft | 484 kts | 83° |
| 2026-04-25 12:18 | 38.63239 | 29.12916 | 38970 ft | 483 kts | 83° |
| 2026-04-25 12:19 | 38.64501 | 29.25722 | 38972 ft | 483 kts | 84° |
| 2026-04-25 12:20 | 38.65332 | 29.34270 | 38972 ft | 485 kts | 84° |
| 2026-04-25 12:20 | 38.66159 | 29.42838 | 38982 ft | 485 kts | 84° |
| 2026-04-25 12:21 | 38.67057 | 29.51342 | 38987 ft | 486 kts | 82° |
| 2026-04-25 12:21 | 38.68149 | 29.59878 | 38975 ft | 486 kts | 81° |
| 2026-04-25 12:22 | 38.69269 | 29.68417 | 38970 ft | 486 kts | 81° |
| 2026-04-25 12:22 | 38.70365 | 29.76970 | 38975 ft | 486 kts | 82° |
| 2026-04-25 12:23 | 38.71439 | 29.85515 | 38980 ft | 486 kts | 82° |
| 2026-04-25 12:23 | 38.72505 | 29.94086 | 38970 ft | 487 kts | 82° |
| 2026-04-25 12:24 | 38.73573 | 30.02613 | 38972 ft | 488 kts | 82° |
| 2026-04-25 12:24 | 38.74708 | 30.11179 | 38971 ft | 488 kts | 81° |
| 2026-04-25 12:25 | 38.75854 | 30.19740 | 38985 ft | 488 kts | 82° |
| 2026-04-25 12:25 | 38.76990 | 30.28318 | 38981 ft | 488 kts | 82° |
| 2026-04-25 12:26 | 38.78113 | 30.36888 | 38987 ft | 488 kts | 82° |
| 2026-04-25 12:26 | 38.79230 | 30.45466 | 38988 ft | 488 kts | 82° |
| 2026-04-25 12:27 | 38.80506 | 30.54003 | 38996 ft | 489 kts | 74° |
| 2026-04-25 12:27 | 38.82893 | 30.62192 | 38992 ft | 492 kts | 68° |
| 2026-04-25 12:28 | 38.85562 | 30.70275 | 39001 ft | 492 kts | 67° |
| 2026-04-25 12:28 | 38.88278 | 30.78340 | 39002 ft | 492 kts | 67° |
| 2026-04-25 12:29 | 38.90959 | 30.86369 | 38991 ft | 492 kts | 67° |
| 2026-04-25 12:29 | 38.93631 | 30.94445 | 38993 ft | 490 kts | 67° |
| 2026-04-25 12:30 | 38.96291 | 31.02521 | 39003 ft | 492 kts | 68° |
| 2026-04-25 12:30 | 38.98951 | 31.10626 | 39014 ft | 493 kts | 68° |
| 2026-04-25 12:31 | 39.01611 | 31.18749 | 39005 ft | 492 kts | 68° |
| 2026-04-25 12:31 | 39.04256 | 31.26850 | 39017 ft | 490 kts | 68° |
| 2026-04-25 12:32 | 39.06897 | 31.34960 | 39018 ft | 492 kts | 68° |
| 2026-04-25 12:32 | 39.09536 | 31.43089 | 39024 ft | 493 kts | 68° |
| 2026-04-25 12:33 | 39.12173 | 31.51235 | 39017 ft | 492 kts | 68° |
| 2026-04-25 12:33 | 39.14793 | 31.59351 | 39034 ft | 491 kts | 68° |
| 2026-04-25 12:34 | 39.17412 | 31.67491 | 39021 ft | 492 kts | 68° |
| 2026-04-25 12:34 | 39.20026 | 31.75635 | 39020 ft | 492 kts | 68° |
| 2026-04-25 12:35 | 39.22634 | 31.83787 | 39048 ft | 491 kts | 68° |
| 2026-04-25 12:35 | 39.25213 | 31.91884 | 39048 ft | 491 kts | 68° |
| 2026-04-25 12:36 | 39.27800 | 32.00030 | 39034 ft | 491 kts | 68° |
| 2026-04-25 12:36 | 39.30383 | 32.08186 | 39047 ft | 491 kts | 68° |
| 2026-04-25 12:37 | 39.32966 | 32.16366 | 39039 ft | 492 kts | 68° |
| 2026-04-25 12:37 | 39.35541 | 32.24544 | 39045 ft | 491 kts | 68° |
| 2026-04-25 12:38 | 39.38111 | 32.32732 | 39063 ft | 491 kts | 68° |
| 2026-04-25 12:38 | 39.40652 | 32.40936 | 39064 ft | 492 kts | 69° |
| 2026-04-25 12:39 | 39.43080 | 32.49202 | 39058 ft | 490 kts | 74° |
| 2026-04-25 12:39 | 39.44432 | 32.57812 | 39061 ft | 488 kts | 82° |
| 2026-04-25 12:40 | 39.45408 | 32.66513 | 39070 ft | 489 kts | 83° |
| 2026-04-25 12:40 | 39.46311 | 32.75258 | 39074 ft | 491 kts | 84° |
| 2026-04-25 12:41 | 39.47218 | 32.84010 | 39084 ft | 491 kts | 83° |
| 2026-04-25 12:41 | 39.48134 | 32.92746 | 39072 ft | 489 kts | 83° |
| 2026-04-25 12:42 | 39.49061 | 33.01479 | 39083 ft | 490 kts | 83° |
| 2026-04-25 12:42 | 39.49987 | 33.10227 | 39069 ft | 490 kts | 83° |
| 2026-04-25 12:43 | 39.50903 | 33.18971 | 39077 ft | 491 kts | 84° |
| 2026-04-25 12:43 | 39.52265 | 33.32144 | 39081 ft | 492 kts | 84° |
| 2026-04-25 12:44 | 39.53151 | 33.40846 | 39072 ft | 490 kts | 84° |
| 2026-04-25 12:45 | 39.54473 | 33.53979 | 39069 ft | 490 kts | 84° |
| 2026-04-25 12:45 | 39.55781 | 33.67101 | 39078 ft | 490 kts | 84° |
| 2026-04-25 12:46 | 39.56647 | 33.75865 | 39079 ft | 491 kts | 84° |
| 2026-04-25 12:46 | 39.57509 | 33.84655 | 39077 ft | 492 kts | 84° |
| 2026-04-25 12:47 | 39.58366 | 33.93452 | 39079 ft | 492 kts | 84° |
| 2026-04-25 12:47 | 39.59218 | 34.02271 | 39075 ft | 493 kts | 84° |
| 2026-04-25 12:48 | 39.60065 | 34.11114 | 39081 ft | 494 kts | 84° |
| 2026-04-25 12:48 | 39.60906 | 34.19972 | 39076 ft | 494 kts | 84° |
| 2026-04-25 12:49 | 39.61738 | 34.28797 | 39074 ft | 493 kts | 84° |
| 2026-04-25 12:49 | 39.62559 | 34.37587 | 39072 ft | 494 kts | 84° |
| 2026-04-25 12:50 | 39.63379 | 34.46441 | 39069 ft | 494 kts | 84° |
| 2026-04-25 12:50 | 39.64193 | 34.55302 | 39070 ft | 494 kts | 84° |
| 2026-04-25 12:51 | 39.65000 | 34.64159 | 39070 ft | 494 kts | 85° |
| 2026-04-25 12:51 | 39.65800 | 34.73020 | 39069 ft | 494 kts | 85° |
| 2026-04-25 12:52 | 39.66593 | 34.81889 | 39061 ft | 495 kts | 85° |
| 2026-04-25 12:52 | 39.67381 | 34.90764 | 39065 ft | 495 kts | 85° |
| 2026-04-25 12:53 | 39.68162 | 34.99643 | 39066 ft | 495 kts | 85° |
| 2026-04-25 12:53 | 39.68936 | 35.08527 | 39065 ft | 495 kts | 85° |
| 2026-04-25 12:54 | 39.69698 | 35.17351 | 39064 ft | 495 kts | 85° |
| 2026-04-25 12:54 | 39.70464 | 35.26294 | 39061 ft | 495 kts | 85° |
| 2026-04-25 12:55 | 39.71091 | 35.33688 | 39063 ft | 496 kts | 85° |
| 2026-04-25 12:55 | 39.71962 | 35.44033 | 39056 ft | 495 kts | 85° |
| 2026-04-25 12:56 | 39.72703 | 35.52929 | 39062 ft | 495 kts | 85° |
| 2026-04-25 12:56 | 39.73435 | 35.61819 | 39062 ft | 495 kts | 85° |
| 2026-04-25 12:57 | 39.74158 | 35.70726 | 39064 ft | 496 kts | 85° |
| 2026-04-25 12:57 | 39.74875 | 35.79643 | 39064 ft | 496 kts | 86° |
| 2026-04-25 12:58 | 39.75585 | 35.88566 | 39068 ft | 496 kts | 86° |
| 2026-04-25 12:58 | 39.76289 | 35.97482 | 39066 ft | 496 kts | 86° |
| 2026-04-25 12:59 | 39.76986 | 36.06404 | 39063 ft | 496 kts | 86° |
| 2026-04-25 12:59 | 39.77676 | 36.15336 | 39065 ft | 497 kts | 86° |
| 2026-04-25 13:00 | 39.78131 | 36.21261 | 39068 ft | 497 kts | 86° |
| 2026-04-25 13:00 | 39.78612 | 36.33185 | 39069 ft | 496 kts | 91° |
| 2026-04-25 13:01 | 39.78637 | 36.42136 | 39071 ft | 495 kts | 92° |
| 2026-04-25 13:01 | 39.78665 | 36.51110 | 39066 ft | 496 kts | 92° |
| 2026-04-25 13:02 | 39.78727 | 36.60074 | 39096 ft | 496 kts | 91° |
| 2026-04-25 13:02 | 39.78802 | 36.69054 | 39111 ft | 496 kts | 91° |
| 2026-04-25 13:03 | 39.78861 | 36.76507 | 39123 ft | 496 kts | 91° |
| 2026-04-25 13:03 | 39.78925 | 36.85479 | 39121 ft | 496 kts | 92° |
| 2026-04-25 13:04 | 39.79379 | 36.94450 | 39131 ft | 498 kts | 86° |
| 2026-04-25 13:04 | 39.80084 | 37.03440 | 39125 ft | 500 kts | 86° |
| 2026-04-25 13:05 | 39.80830 | 37.12428 | 39111 ft | 500 kts | 85° |
| 2026-04-25 13:05 | 39.81568 | 37.21418 | 39093 ft | 500 kts | 86° |
| 2026-04-25 13:06 | 39.82290 | 37.30403 | 39078 ft | 500 kts | 86° |
| 2026-04-25 13:06 | 39.83001 | 37.39404 | 39070 ft | 500 kts | 86° |
| 2026-04-25 13:07 | 39.83703 | 37.48418 | 39061 ft | 501 kts | 86° |
| 2026-04-25 13:07 | 39.84388 | 37.57377 | 39060 ft | 501 kts | 86° |
| 2026-04-25 13:08 | 39.85070 | 37.66398 | 39057 ft | 501 kts | 86° |
| 2026-04-25 13:08 | 39.85746 | 37.75426 | 39055 ft | 501 kts | 86° |
| 2026-04-25 13:09 | 39.86416 | 37.84460 | 39060 ft | 502 kts | 86° |
| 2026-04-25 13:09 | 39.87080 | 37.93519 | 39060 ft | 503 kts | 86° |
| 2026-04-25 13:10 | 39.87741 | 38.02586 | 39058 ft | 503 kts | 86° |
| 2026-04-25 13:10 | 39.88400 | 38.11641 | 39060 ft | 503 kts | 86° |
| 2026-04-25 13:11 | 39.89055 | 38.20709 | 39084 ft | 503 kts | 86° |
| 2026-04-25 13:11 | 39.89701 | 38.29783 | 39081 ft | 503 kts | 86° |
| 2026-04-25 13:12 | 39.90340 | 38.38850 | 39082 ft | 503 kts | 87° |
| 2026-04-25 13:12 | 39.90866 | 38.46393 | 39082 ft | 503 kts | 87° |
| 2026-04-25 13:13 | 39.91592 | 38.56941 | 39089 ft | 503 kts | 87° |
| 2026-04-25 13:13 | 39.92210 | 38.66022 | 39091 ft | 503 kts | 87° |
| 2026-04-25 13:14 | 39.92821 | 38.75107 | 39085 ft | 504 kts | 87° |
| 2026-04-25 13:14 | 39.93427 | 38.84226 | 39094 ft | 505 kts | 87° |
| 2026-04-25 13:15 | 39.93896 | 38.93344 | 39099 ft | 504 kts | 90° |
| 2026-04-25 13:15 | 39.94034 | 39.02466 | 39097 ft | 503 kts | 92° |
| 2026-04-25 13:16 | 39.94112 | 39.11589 | 39097 ft | 504 kts | 91° |
| 2026-04-25 13:16 | 39.94227 | 39.20732 | 39102 ft | 505 kts | 91° |
| 2026-04-25 13:17 | 39.94365 | 39.29893 | 39100 ft | 506 kts | 91° |
| 2026-04-25 13:17 | 39.94503 | 39.39060 | 39102 ft | 506 kts | 91° |
| 2026-04-25 13:18 | 39.94632 | 39.48227 | 39101 ft | 506 kts | 91° |
| 2026-04-25 13:18 | 39.94750 | 39.57333 | 39100 ft | 506 kts | 91° |
| 2026-04-25 13:19 | 39.94864 | 39.66520 | 39100 ft | 507 kts | 91° |
| 2026-04-25 13:19 | 39.94956 | 39.74234 | 39099 ft | 508 kts | 91° |
| 2026-04-25 13:20 | 39.95075 | 39.84920 | 39097 ft | 508 kts | 91° |
| 2026-04-25 13:20 | 39.95168 | 39.94127 | 39099 ft | 508 kts | 91° |
| 2026-04-25 13:21 | 39.95251 | 40.03334 | 39096 ft | 508 kts | 91° |
| 2026-04-25 13:21 | 39.95326 | 40.12544 | 39098 ft | 509 kts | 91° |
| 2026-04-25 13:22 | 39.95393 | 40.21776 | 39098 ft | 510 kts | 91° |
| 2026-04-25 13:23 | 39.95480 | 40.35628 | 39095 ft | 510 kts | 91° |
| 2026-04-25 13:23 | 39.95529 | 40.44856 | 39096 ft | 509 kts | 92° |
| 2026-04-25 13:24 | 39.95572 | 40.54088 | 39101 ft | 509 kts | 92° |
| 2026-04-25 13:24 | 39.95608 | 40.63316 | 39103 ft | 510 kts | 91° |
| 2026-04-25 13:25 | 39.95637 | 40.72524 | 39109 ft | 510 kts | 92° |
| 2026-04-25 13:25 | 39.95659 | 40.81780 | 39109 ft | 510 kts | 92° |
| 2026-04-25 13:26 | 39.95673 | 40.91038 | 39122 ft | 510 kts | 92° |
| 2026-04-25 13:26 | 39.95681 | 41.00294 | 39126 ft | 510 kts | 92° |
| 2026-04-25 13:27 | 39.95682 | 41.09539 | 39129 ft | 510 kts | 92° |
| 2026-04-25 13:27 | 39.95684 | 41.18796 | 39129 ft | 512 kts | 90° |
| 2026-04-25 13:28 | 39.96212 | 41.28061 | 39115 ft | 513 kts | 86° |
| 2026-04-25 13:28 | 39.96886 | 41.37327 | 39118 ft | 514 kts | 86° |
| 2026-04-25 13:29 | 39.97584 | 41.46590 | 39118 ft | 514 kts | 86° |
| 2026-04-25 13:29 | 39.98264 | 41.55795 | 39119 ft | 514 kts | 86° |
| 2026-04-25 13:30 | 39.99266 | 41.69724 | 39121 ft | 514 kts | 86° |
| 2026-04-25 13:31 | 40.00266 | 41.83642 | 39121 ft | 514 kts | 86° |
| 2026-04-25 13:31 | 40.00939 | 41.92926 | 39120 ft | 514 kts | 86° |
| 2026-04-25 13:32 | 40.01604 | 42.02207 | 39119 ft | 514 kts | 86° |
| 2026-04-25 13:32 | 40.02262 | 42.11509 | 39118 ft | 514 kts | 86° |
| 2026-04-25 13:33 | 40.02911 | 42.20809 | 39123 ft | 515 kts | 86° |
| 2026-04-25 13:33 | 40.03553 | 42.30108 | 39126 ft | 515 kts | 86° |
| 2026-04-25 13:34 | 40.04188 | 42.39415 | 39127 ft | 516 kts | 86° |
| 2026-04-25 13:34 | 40.04801 | 42.48751 | 39126 ft | 516 kts | 87° |
| 2026-04-25 13:35 | 40.05379 | 42.58091 | 39129 ft | 516 kts | 87° |
| 2026-04-25 13:35 | 40.05946 | 42.67438 | 39135 ft | 516 kts | 87° |
| 2026-04-25 13:36 | 40.06508 | 42.76786 | 39131 ft | 516 kts | 87° |
| 2026-04-25 13:36 | 40.07062 | 42.86083 | 39127 ft | 517 kts | 88° |
| 2026-04-25 13:37 | 40.07613 | 42.95450 | 39132 ft | 517 kts | 87° |
| 2026-04-25 13:37 | 40.08158 | 43.04805 | 39126 ft | 517 kts | 87° |
| 2026-04-25 13:38 | 40.08699 | 43.14174 | 39130 ft | 517 kts | 87° |
| 2026-04-25 13:38 | 40.09233 | 43.23554 | 39129 ft | 518 kts | 88° |
| 2026-04-25 13:39 | 40.09757 | 43.32942 | 39129 ft | 517 kts | 88° |
| 2026-04-25 13:39 | 40.10272 | 43.42310 | 39118 ft | 517 kts | 88° |
| 2026-04-25 13:40 | 40.10779 | 43.51682 | 39105 ft | 517 kts | 88° |
| 2026-04-25 13:40 | 40.11278 | 43.61063 | 39101 ft | 517 kts | 88° |
| 2026-04-25 13:41 | 40.11697 | 43.70447 | 39075 ft | 517 kts | 90° |
| 2026-04-25 13:41 | 40.11863 | 43.79776 | 39086 ft | 516 kts | 91° |
| 2026-04-25 13:42 | 40.11973 | 43.89146 | 39079 ft | 516 kts | 91° |
| 2026-04-25 13:42 | 40.12095 | 43.98515 | 39238 ft | 515 kts | 91° |
| 2026-04-25 13:42 | 40.12162 | 44.03198 | 39346 ft | 516 kts | 91° |
| 2026-04-25 13:43 | 40.12230 | 44.07883 | 39447 ft | 517 kts | 91° |
| 2026-04-25 13:43 | 40.12297 | 44.12585 | 39578 ft | 518 kts | 91° |
| 2026-04-25 13:43 | 40.12363 | 44.17286 | 39712 ft | 518 kts | 91° |
| 2026-04-25 13:44 | 40.12490 | 44.26718 | 39949 ft | 519 kts | 91° |
| 2026-04-25 13:44 | 40.12550 | 44.31422 | 40059 ft | 519 kts | 91° |
| 2026-04-25 13:44 | 40.12608 | 44.36145 | 40080 ft | 517 kts | 91° |
| 2026-04-25 13:45 | 40.12718 | 44.45514 | 40081 ft | 515 kts | 91° |
| 2026-04-25 13:45 | 40.12818 | 44.54868 | 40074 ft | 516 kts | 91° |
| 2026-04-25 13:46 | 40.12912 | 44.64258 | 40072 ft | 517 kts | 91° |
| 2026-04-25 13:46 | 40.12998 | 44.73641 | 40081 ft | 517 kts | 91° |
| 2026-04-25 13:47 | 40.13077 | 44.83031 | 40104 ft | 517 kts | 91° |
| 2026-04-25 13:47 | 40.13148 | 44.92353 | 40114 ft | 517 kts | 91° |
| 2026-04-25 13:48 | 40.13211 | 45.01749 | 40103 ft | 517 kts | 91° |
| 2026-04-25 13:48 | 40.13267 | 45.11144 | 40100 ft | 517 kts | 92° |
| 2026-04-25 13:49 | 40.13315 | 45.20542 | 40102 ft | 517 kts | 92° |
| 2026-04-25 13:49 | 40.13355 | 45.29938 | 40087 ft | 517 kts | 92° |
| 2026-04-25 13:50 | 40.13387 | 45.39334 | 40090 ft | 517 kts | 92° |
| 2026-04-25 13:50 | 40.13411 | 45.48736 | 40085 ft | 517 kts | 92° |
| 2026-04-25 13:51 | 40.13428 | 45.58125 | 40075 ft | 517 kts | 92° |
| 2026-04-25 13:51 | 40.13437 | 45.65935 | 40081 ft | 516 kts | 92° |
| 2026-04-25 13:52 | 40.13439 | 45.76851 | 40084 ft | 516 kts | 92° |
| 2026-04-25 13:52 | 40.13434 | 45.86234 | 40072 ft | 516 kts | 92° |
| 2026-04-25 13:53 | 40.13425 | 45.94028 | 40069 ft | 516 kts | 92° |
| 2026-04-25 13:53 | 40.13583 | 46.03431 | 40053 ft | 518 kts | 89° |
| 2026-04-25 13:54 | 40.13891 | 46.12810 | 40064 ft | 516 kts | 89° |
| 2026-04-25 13:54 | 40.14197 | 46.22167 | 40068 ft | 515 kts | 90° |
| 2026-04-25 13:55 | 40.14472 | 46.31521 | 40065 ft | 515 kts | 90° |
| 2026-04-25 13:55 | 40.14727 | 46.40892 | 40076 ft | 516 kts | 90° |
| 2026-04-25 13:56 | 40.14973 | 46.50276 | 40067 ft | 516 kts | 90° |
| 2026-04-25 13:56 | 40.15213 | 46.59660 | 40069 ft | 516 kts | 90° |
| 2026-04-25 13:57 | 40.15445 | 46.69040 | 40080 ft | 516 kts | 90° |
| 2026-04-25 13:57 | 40.15670 | 46.78420 | 40073 ft | 517 kts | 90° |
| 2026-04-25 13:58 | 40.15886 | 46.87754 | 40072 ft | 517 kts | 90° |
| 2026-04-25 13:58 | 40.16096 | 46.97146 | 40070 ft | 517 kts | 91° |
| 2026-04-25 13:59 | 40.16299 | 47.06543 | 40066 ft | 517 kts | 91° |
| 2026-04-25 13:59 | 40.16493 | 47.15932 | 40067 ft | 516 kts | 91° |
| 2026-04-25 14:00 | 40.16680 | 47.25315 | 40064 ft | 516 kts | 91° |
| 2026-04-25 14:00 | 40.16861 | 47.34708 | 40066 ft | 516 kts | 91° |
| 2026-04-25 14:01 | 40.17032 | 47.44098 | 40069 ft | 517 kts | 91° |
| 2026-04-25 14:01 | 40.17198 | 47.53494 | 40067 ft | 517 kts | 91° |
| 2026-04-25 14:02 | 40.17356 | 47.62922 | 40066 ft | 520 kts | 91° |
| 2026-04-25 14:02 | 40.17507 | 47.72370 | 40064 ft | 520 kts | 91° |
| 2026-04-25 14:03 | 40.17652 | 47.81824 | 40070 ft | 520 kts | 92° |
| 2026-04-25 14:03 | 40.17788 | 47.91275 | 40067 ft | 520 kts | 92° |
| 2026-04-25 14:04 | 40.17917 | 48.00731 | 40056 ft | 521 kts | 92° |
| 2026-04-25 14:04 | 40.18037 | 48.10154 | 40064 ft | 523 kts | 92° |
| 2026-04-25 14:05 | 40.18151 | 48.19662 | 40070 ft | 523 kts | 92° |
| 2026-04-25 14:05 | 40.18258 | 48.29171 | 40069 ft | 523 kts | 92° |
| 2026-04-25 14:06 | 40.18356 | 48.38680 | 40075 ft | 523 kts | 92° |
| 2026-04-25 14:06 | 40.18446 | 48.48204 | 40077 ft | 524 kts | 92° |
| 2026-04-25 14:07 | 40.18530 | 48.57733 | 40074 ft | 523 kts | 92° |
| 2026-04-25 14:07 | 40.18605 | 48.67250 | 40089 ft | 522 kts | 92° |
| 2026-04-25 14:08 | 40.18672 | 48.76749 | 40097 ft | 522 kts | 92° |
| 2026-04-25 14:08 | 40.18731 | 48.86248 | 40103 ft | 521 kts | 92° |
| 2026-04-25 14:09 | 40.18773 | 48.95641 | 40112 ft | 519 kts | 92° |
| 2026-04-25 14:09 | 40.18801 | 49.05063 | 40129 ft | 518 kts | 92° |
| 2026-04-25 14:10 | 40.18819 | 49.12964 | 40138 ft | 518 kts | 92° |
| 2026-04-25 14:10 | 40.18837 | 49.23920 | 40147 ft | 519 kts | 92° |
| 2026-04-25 14:11 | 40.18860 | 49.33372 | 40151 ft | 521 kts | 92° |
| 2026-04-25 14:11 | 40.18895 | 49.42840 | 40154 ft | 521 kts | 92° |
| 2026-04-25 14:12 | 40.18735 | 49.52296 | 40156 ft | 518 kts | 98° |
| 2026-04-25 14:12 | 40.17994 | 49.61679 | 40159 ft | 519 kts | 100° |
| 2026-04-25 14:13 | 40.17131 | 49.71042 | 40166 ft | 520 kts | 101° |
| 2026-04-25 14:13 | 40.16235 | 49.80470 | 40150 ft | 525 kts | 101° |
| 2026-04-25 14:14 | 40.15337 | 49.89970 | 40168 ft | 526 kts | 101° |
| 2026-04-25 14:14 | 40.14440 | 49.99460 | 40164 ft | 527 kts | 101° |
| 2026-04-25 14:15 | 40.13536 | 50.08967 | 40163 ft | 527 kts | 101° |
| 2026-04-25 14:15 | 40.12628 | 50.18420 | 40167 ft | 528 kts | 101° |
| 2026-04-25 14:16 | 40.11704 | 50.27948 | 40159 ft | 529 kts | 101° |
| 2026-04-25 14:16 | 40.10771 | 50.37489 | 40156 ft | 529 kts | 101° |
| 2026-04-25 14:17 | 40.09832 | 50.47016 | 40161 ft | 529 kts | 101° |
| 2026-04-25 14:17 | 40.08884 | 50.56538 | 40158 ft | 528 kts | 101° |
| 2026-04-25 14:18 | 40.07930 | 50.66044 | 40158 ft | 528 kts | 102° |
| 2026-04-25 14:18 | 40.06968 | 50.75561 | 40153 ft | 528 kts | 102° |
| 2026-04-25 14:19 | 40.06000 | 50.85048 | 40156 ft | 527 kts | 102° |
| 2026-04-25 14:19 | 40.05024 | 50.94532 | 40156 ft | 527 kts | 102° |
| 2026-04-25 14:20 | 40.04041 | 51.04001 | 40154 ft | 527 kts | 102° |
| 2026-04-25 14:20 | 40.03051 | 51.13468 | 40154 ft | 526 kts | 102° |
| 2026-04-25 14:21 | 40.02053 | 51.22936 | 40150 ft | 527 kts | 103° |
| 2026-04-25 14:21 | 40.01048 | 51.32395 | 40151 ft | 527 kts | 103° |
| 2026-04-25 14:22 | 40.00034 | 51.41858 | 40147 ft | 527 kts | 103° |
| 2026-04-25 14:22 | 39.98856 | 51.51204 | 40142 ft | 523 kts | 107° |
| 2026-04-25 14:23 | 39.97232 | 51.60425 | 40145 ft | 521 kts | 109° |
| 2026-04-25 14:23 | 39.95517 | 51.69586 | 40143 ft | 520 kts | 109° |
| 2026-04-25 14:24 | 39.93781 | 51.78737 | 40143 ft | 520 kts | 109° |
| 2026-04-25 14:24 | 39.92047 | 51.87880 | 40117 ft | 520 kts | 109° |
| 2026-04-25 14:25 | 39.90313 | 51.97015 | 40137 ft | 519 kts | 110° |
| 2026-04-25 14:25 | 39.88579 | 52.06120 | 40137 ft | 518 kts | 110° |
| 2026-04-25 14:26 | 39.86834 | 52.15235 | 40137 ft | 518 kts | 110° |
| 2026-04-25 14:26 | 39.85083 | 52.24344 | 40131 ft | 518 kts | 110° |
| 2026-04-25 14:27 | 39.83325 | 52.33444 | 40135 ft | 518 kts | 110° |
| 2026-04-25 14:27 | 39.81562 | 52.42528 | 40133 ft | 518 kts | 110° |
| 2026-04-25 14:28 | 39.79802 | 52.51555 | 40131 ft | 518 kts | 110° |
| 2026-04-25 14:28 | 39.78025 | 52.60631 | 40124 ft | 518 kts | 110° |
| 2026-04-25 14:29 | 39.76243 | 52.69694 | 40123 ft | 517 kts | 110° |
| 2026-04-25 14:29 | 39.74455 | 52.78743 | 40126 ft | 517 kts | 110° |
| 2026-04-25 14:30 | 39.72671 | 52.87792 | 40128 ft | 517 kts | 110° |
| 2026-04-25 14:30 | 39.70026 | 53.01410 | 40124 ft | 518 kts | 110° |
| 2026-04-25 14:31 | 39.68257 | 53.10484 | 40119 ft | 518 kts | 110° |
| 2026-04-25 14:31 | 39.66479 | 53.19545 | 40114 ft | 518 kts | 110° |
| 2026-04-25 14:32 | 39.64703 | 53.28546 | 40111 ft | 518 kts | 110° |
| 2026-04-25 14:32 | 39.62914 | 53.37577 | 40112 ft | 516 kts | 110° |
| 2026-04-25 14:33 | 39.61117 | 53.46601 | 40088 ft | 517 kts | 111° |
| 2026-04-25 14:33 | 39.59309 | 53.55638 | 40089 ft | 517 kts | 111° |
| 2026-04-25 14:34 | 39.57498 | 53.64657 | 40078 ft | 516 kts | 111° |
| 2026-04-25 14:34 | 39.55685 | 53.73652 | 40083 ft | 516 kts | 111° |
| 2026-04-25 14:35 | 39.53863 | 53.82644 | 40084 ft | 516 kts | 111° |
| 2026-04-25 14:35 | 39.52037 | 53.91621 | 40083 ft | 516 kts | 111° |
| 2026-04-25 14:36 | 39.50202 | 54.00601 | 40079 ft | 515 kts | 111° |
| 2026-04-25 14:36 | 39.48352 | 54.09554 | 40076 ft | 515 kts | 111° |
| 2026-04-25 14:37 | 39.46480 | 54.18506 | 40080 ft | 515 kts | 111° |
| 2026-04-25 14:37 | 39.44602 | 54.27446 | 40048 ft | 515 kts | 111° |
| 2026-04-25 14:38 | 39.43037 | 54.34876 | 40063 ft | 515 kts | 111° |
| 2026-04-25 14:38 | 39.41146 | 54.43825 | 40062 ft | 515 kts | 111° |
| 2026-04-25 14:39 | 39.38942 | 54.54211 | 40059 ft | 515 kts | 112° |
| 2026-04-25 14:39 | 39.37346 | 54.61699 | 40060 ft | 516 kts | 112° |
| 2026-04-25 14:40 | 39.35445 | 54.70586 | 40043 ft | 517 kts | 112° |
| 2026-04-25 14:40 | 39.33526 | 54.79524 | 40034 ft | 516 kts | 112° |
| 2026-04-25 14:41 | 39.31596 | 54.88470 | 40038 ft | 516 kts | 112° |
| 2026-04-25 14:41 | 39.29662 | 54.97402 | 40025 ft | 517 kts | 112° |
| 2026-04-25 14:42 | 39.28050 | 55.04819 | 40035 ft | 516 kts | 112° |
| 2026-04-25 14:42 | 39.25777 | 55.15232 | 40034 ft | 516 kts | 112° |
| 2026-04-25 14:43 | 39.23823 | 55.24141 | 40034 ft | 516 kts | 112° |
| 2026-04-25 14:43 | 39.21864 | 55.33042 | 40027 ft | 516 kts | 112° |
| 2026-04-25 14:44 | 39.19895 | 55.41951 | 40028 ft | 517 kts | 112° |
| 2026-04-25 14:44 | 39.17919 | 55.50858 | 40023 ft | 516 kts | 112° |
| 2026-04-25 14:45 | 39.15936 | 55.59757 | 40023 ft | 517 kts | 112° |
| 2026-04-25 14:45 | 39.13938 | 55.68673 | 40015 ft | 518 kts | 113° |
| 2026-04-25 14:46 | 39.11944 | 55.77530 | 40021 ft | 518 kts | 113° |
| 2026-04-25 14:46 | 39.09933 | 55.86436 | 40015 ft | 518 kts | 112° |
| 2026-04-25 14:47 | 39.08243 | 55.93893 | 40013 ft | 518 kts | 113° |
| 2026-04-25 14:47 | 39.05891 | 56.04229 | 40007 ft | 518 kts | 113° |
| 2026-04-25 14:48 | 39.03860 | 56.13115 | 40001 ft | 518 kts | 113° |
| 2026-04-25 14:48 | 39.01820 | 56.22006 | 40001 ft | 518 kts | 113° |
| 2026-04-25 14:49 | 38.99757 | 56.30880 | 39983 ft | 517 kts | 114° |
| 2026-04-25 14:49 | 38.97443 | 56.39604 | 39996 ft | 514 kts | 116° |
| 2026-04-25 14:50 | 38.95017 | 56.48261 | 39993 ft | 514 kts | 117° |
| 2026-04-25 14:50 | 38.92601 | 56.56900 | 39995 ft | 514 kts | 116° |
| 2026-04-25 14:51 | 38.90198 | 56.65561 | 39978 ft | 515 kts | 116° |
| 2026-04-25 14:51 | 38.87805 | 56.74191 | 39979 ft | 517 kts | 116° |
| 2026-04-25 14:52 | 38.85390 | 56.82887 | 39990 ft | 517 kts | 117° |
| 2026-04-25 14:52 | 38.83359 | 56.90170 | 39972 ft | 518 kts | 117° |
| 2026-04-25 14:53 | 38.80526 | 57.00289 | 39969 ft | 519 kts | 117° |
| 2026-04-25 14:53 | 38.78081 | 57.08996 | 39960 ft | 520 kts | 117° |
| 2026-04-25 14:54 | 38.75622 | 57.17721 | 39952 ft | 520 kts | 117° |
| 2026-04-25 14:54 | 38.73160 | 57.26432 | 39959 ft | 520 kts | 117° |
| 2026-04-25 14:55 | 38.70691 | 57.35135 | 39954 ft | 519 kts | 116° |
| 2026-04-25 14:55 | 38.68238 | 57.43756 | 39943 ft | 518 kts | 117° |
| 2026-04-25 14:56 | 38.65771 | 57.52398 | 39940 ft | 517 kts | 117° |
| 2026-04-25 14:56 | 38.63295 | 57.61035 | 39914 ft | 517 kts | 116° |
| 2026-04-25 14:57 | 38.60736 | 57.69599 | 39938 ft | 512 kts | 119° |
| 2026-04-25 14:57 | 38.57861 | 57.77898 | 39932 ft | 509 kts | 121° |
| 2026-04-25 14:58 | 38.54905 | 57.86132 | 39929 ft | 509 kts | 121° |
| 2026-04-25 14:58 | 38.51976 | 57.94363 | 39930 ft | 509 kts | 121° |
| 2026-04-25 14:59 | 38.49061 | 58.02619 | 39927 ft | 511 kts | 121° |
| 2026-04-25 14:59 | 38.46142 | 58.10900 | 39922 ft | 512 kts | 121° |
| 2026-04-25 15:00 | 38.43217 | 58.19174 | 39920 ft | 512 kts | 121° |
| 2026-04-25 15:00 | 38.40383 | 58.27442 | 39915 ft | 516 kts | 115° |
| 2026-04-25 15:01 | 38.38370 | 58.36271 | 39917 ft | 520 kts | 110° |
| 2026-04-25 15:01 | 38.36576 | 58.45216 | 39912 ft | 521 kts | 109° |
| 2026-04-25 15:02 | 38.34817 | 58.54182 | 39900 ft | 522 kts | 109° |
| 2026-04-25 15:02 | 38.33033 | 58.63156 | 39903 ft | 523 kts | 109° |
| 2026-04-25 15:03 | 38.31231 | 58.72118 | 39904 ft | 522 kts | 109° |
| 2026-04-25 15:03 | 38.29419 | 58.81061 | 39906 ft | 522 kts | 109° |
| 2026-04-25 15:04 | 38.27599 | 58.90006 | 39904 ft | 522 kts | 109° |
| 2026-04-25 15:04 | 38.25773 | 58.98944 | 39903 ft | 522 kts | 110° |
| 2026-04-25 15:05 | 38.23942 | 59.07875 | 39901 ft | 521 kts | 110° |
| 2026-04-25 15:06 | 38.21180 | 59.21267 | 39904 ft | 522 kts | 110° |
| 2026-04-25 15:06 | 38.19353 | 59.30085 | 39903 ft | 522 kts | 110° |
| 2026-04-25 15:07 | 38.17498 | 59.38999 | 39904 ft | 522 kts | 110° |
| 2026-04-25 15:07 | 38.15628 | 59.47939 | 39903 ft | 524 kts | 110° |
| 2026-04-25 15:08 | 38.13750 | 59.56893 | 39903 ft | 524 kts | 110° |
| 2026-04-25 15:08 | 38.11864 | 59.65844 | 39903 ft | 524 kts | 110° |
| 2026-04-25 15:09 | 38.09973 | 59.74788 | 39903 ft | 524 kts | 110° |
| 2026-04-25 15:09 | 38.07132 | 59.88151 | 39904 ft | 527 kts | 111° |
| 2026-04-25 15:10 | 38.05206 | 59.97156 | 39905 ft | 529 kts | 110° |
| 2026-04-25 15:11 | 38.02306 | 60.10657 | 39903 ft | 529 kts | 110° |
| 2026-04-25 15:11 | 38.00366 | 60.19644 | 39901 ft | 528 kts | 110° |
| 2026-04-25 15:12 | 37.97435 | 60.33117 | 39902 ft | 529 kts | 110° |
| 2026-04-25 15:12 | 37.96119 | 60.39133 | 39904 ft | 529 kts | 110° |
| 2026-04-25 15:13 | 37.92506 | 60.55578 | 39906 ft | 529 kts | 110° |
| 2026-04-25 15:14 | 37.90525 | 60.64546 | 39888 ft | 529 kts | 110° |
| 2026-04-25 15:14 | 37.88534 | 60.73521 | 39903 ft | 530 kts | 111° |
| 2026-04-25 15:15 | 37.86532 | 60.82507 | 39908 ft | 530 kts | 111° |
| 2026-04-25 15:15 | 37.84541 | 60.91421 | 39906 ft | 530 kts | 111° |
| 2026-04-25 15:16 | 37.82529 | 61.00385 | 39905 ft | 530 kts | 111° |
| 2026-04-25 15:16 | 37.79490 | 61.13855 | 39907 ft | 532 kts | 111° |
| 2026-04-25 15:17 | 37.76427 | 61.27358 | 39906 ft | 533 kts | 111° |
| 2026-04-25 15:18 | 37.74377 | 61.36354 | 39905 ft | 533 kts | 111° |
| 2026-04-25 15:18 | 37.71280 | 61.49876 | 39888 ft | 534 kts | 111° |
| 2026-04-25 15:19 | 37.69907 | 61.55843 | 39893 ft | 534 kts | 111° |
| 2026-04-25 15:19 | 37.67141 | 61.67827 | 39906 ft | 534 kts | 111° |
| 2026-04-25 15:20 | 37.65054 | 61.76824 | 39907 ft | 534 kts | 111° |
| 2026-04-25 15:20 | 37.62962 | 61.85809 | 39907 ft | 533 kts | 111° |
| 2026-04-25 15:21 | 37.60924 | 61.94815 | 39885 ft | 534 kts | 110° |
| 2026-04-25 15:21 | 37.58983 | 62.03876 | 39885 ft | 536 kts | 109° |
| 2026-04-25 15:22 | 37.57046 | 62.12954 | 39896 ft | 536 kts | 110° |
| 2026-04-25 15:22 | 37.55091 | 62.22015 | 39895 ft | 536 kts | 110° |
| 2026-04-25 15:23 | 37.53119 | 62.31072 | 39905 ft | 537 kts | 110° |
| 2026-04-25 15:23 | 37.51148 | 62.40081 | 39903 ft | 537 kts | 110° |
| 2026-04-25 15:24 | 37.49162 | 62.49129 | 39905 ft | 536 kts | 110° |
| 2026-04-25 15:24 | 37.47831 | 62.55172 | 39911 ft | 536 kts | 110° |
| 2026-04-25 15:25 | 37.45166 | 62.67218 | 39912 ft | 537 kts | 110° |
| 2026-04-25 15:25 | 37.43156 | 62.76266 | 39909 ft | 537 kts | 110° |
| 2026-04-25 15:26 | 37.41481 | 62.83781 | 39895 ft | 537 kts | 110° |
| 2026-04-25 15:26 | 37.39463 | 62.92804 | 39917 ft | 535 kts | 110° |
| 2026-04-25 15:27 | 37.37443 | 63.01793 | 39918 ft | 534 kts | 110° |
| 2026-04-25 15:28 | 37.34403 | 63.15254 | 39925 ft | 534 kts | 110° |
| 2026-04-25 15:28 | 37.32357 | 63.24267 | 39922 ft | 536 kts | 110° |
| 2026-04-25 15:29 | 37.30305 | 63.33282 | 39918 ft | 535 kts | 110° |
| 2026-04-25 15:29 | 37.28260 | 63.42236 | 39920 ft | 532 kts | 110° |
| 2026-04-25 15:30 | 37.26208 | 63.51174 | 39930 ft | 533 kts | 110° |
| 2026-04-25 15:30 | 37.24162 | 63.60051 | 39925 ft | 533 kts | 110° |
| 2026-04-25 15:31 | 37.22096 | 63.68984 | 39931 ft | 533 kts | 110° |
| 2026-04-25 15:31 | 37.20025 | 63.77905 | 39940 ft | 533 kts | 109° |
| 2026-04-25 15:32 | 37.17940 | 63.86852 | 39928 ft | 534 kts | 109° |
| 2026-04-25 15:32 | 37.15849 | 63.95793 | 39943 ft | 535 kts | 109° |
| 2026-04-25 15:33 | 37.12698 | 64.09203 | 39943 ft | 536 kts | 110° |
| 2026-04-25 15:33 | 37.10578 | 64.18176 | 39938 ft | 539 kts | 110° |
| 2026-04-25 15:34 | 37.08447 | 64.27167 | 39949 ft | 537 kts | 110° |
| 2026-04-25 15:34 | 37.06665 | 64.34665 | 39947 ft | 535 kts | 110° |
| 2026-04-25 15:35 | 37.03105 | 64.49564 | 39951 ft | 540 kts | 110° |
| 2026-04-25 15:36 | 36.99862 | 64.63058 | 39954 ft | 540 kts | 110° |
| 2026-04-25 15:36 | 36.97694 | 64.72044 | 39962 ft | 539 kts | 110° |
| 2026-04-25 15:37 | 36.94892 | 64.80624 | 39968 ft | 528 kts | 125° |
| 2026-04-25 15:37 | 36.91042 | 64.88414 | 39952 ft | 526 kts | 128° |
| 2026-04-25 15:38 | 36.86995 | 64.96034 | 39957 ft | 526 kts | 129° |
| 2026-04-25 15:38 | 36.82926 | 65.03620 | 39960 ft | 526 kts | 129° |
| 2026-04-25 15:39 | 36.78876 | 65.11208 | 39966 ft | 524 kts | 129° |
| 2026-04-25 15:39 | 36.74849 | 65.18774 | 39968 ft | 523 kts | 129° |
| 2026-04-25 15:40 | 36.71500 | 65.25058 | 39974 ft | 523 kts | 129° |
| 2026-04-25 15:40 | 36.66811 | 65.33836 | 39968 ft | 524 kts | 128° |
| 2026-04-25 15:41 | 36.62763 | 65.41394 | 39986 ft | 525 kts | 128° |
| 2026-04-25 15:41 | 36.58705 | 65.48952 | 39986 ft | 525 kts | 128° |
| 2026-04-25 15:42 | 36.54647 | 65.56497 | 39994 ft | 525 kts | 128° |
| 2026-04-25 15:42 | 36.50576 | 65.64046 | 40003 ft | 525 kts | 128° |
| 2026-04-25 15:43 | 36.46493 | 65.71599 | 40004 ft | 528 kts | 128° |
| 2026-04-25 15:43 | 36.42391 | 65.79173 | 40013 ft | 528 kts | 129° |
| 2026-04-25 15:44 | 36.38288 | 65.86733 | 40035 ft | 528 kts | 129° |
| 2026-04-25 15:44 | 36.34175 | 65.94296 | 40037 ft | 528 kts | 129° |
| 2026-04-25 15:45 | 36.30074 | 66.01814 | 40047 ft | 532 kts | 129° |
| 2026-04-25 15:45 | 36.26595 | 66.08180 | 40048 ft | 532 kts | 129° |
| 2026-04-25 15:46 | 36.21766 | 66.17003 | 40051 ft | 532 kts | 129° |
| 2026-04-25 15:46 | 36.17607 | 66.24575 | 40069 ft | 532 kts | 129° |
| 2026-04-25 15:47 | 36.13437 | 66.32142 | 40087 ft | 533 kts | 128° |
| 2026-04-25 15:47 | 36.09248 | 66.39728 | 40083 ft | 534 kts | 129° |
| 2026-04-25 15:48 | 36.05053 | 66.47307 | 40103 ft | 534 kts | 129° |
| 2026-04-25 15:48 | 36.00852 | 66.54884 | 40096 ft | 534 kts | 129° |
| 2026-04-25 15:49 | 35.96647 | 66.62451 | 40121 ft | 536 kts | 128° |
| 2026-04-25 15:49 | 35.92409 | 66.70057 | 40144 ft | 538 kts | 129° |
| 2026-04-25 15:50 | 35.88168 | 66.77656 | 40125 ft | 537 kts | 129° |
| 2026-04-25 15:50 | 35.83925 | 66.85242 | 40156 ft | 537 kts | 129° |
| 2026-04-25 15:51 | 35.80395 | 66.91540 | 40151 ft | 537 kts | 128° |
| 2026-04-25 15:51 | 35.75459 | 67.00372 | 40183 ft | 540 kts | 128° |
| 2026-04-25 15:52 | 35.71205 | 67.07989 | 40204 ft | 539 kts | 128° |
| 2026-04-25 15:52 | 35.66945 | 67.15591 | 40209 ft | 539 kts | 128° |
| 2026-04-25 15:53 | 35.62696 | 67.23184 | 40242 ft | 539 kts | 128° |
| 2026-04-25 15:53 | 35.58420 | 67.30787 | 40250 ft | 541 kts | 128° |
| 2026-04-25 15:54 | 35.54129 | 67.38391 | 40251 ft | 542 kts | 128° |
| 2026-04-25 15:54 | 35.49826 | 67.45990 | 40242 ft | 541 kts | 128° |
| 2026-04-25 15:55 | 35.45527 | 67.53566 | 40254 ft | 540 kts | 128° |
| 2026-04-25 15:55 | 35.41229 | 67.61133 | 40253 ft | 542 kts | 128° |
| 2026-04-25 15:56 | 35.36905 | 67.68731 | 40234 ft | 544 kts | 128° |
| 2026-04-25 15:56 | 35.32590 | 67.76332 | 40240 ft | 543 kts | 128° |
| 2026-04-25 15:57 | 35.28292 | 67.83858 | 40235 ft | 543 kts | 128° |
| 2026-04-25 15:57 | 35.23996 | 67.91474 | 40233 ft | 543 kts | 128° |
| 2026-04-25 15:58 | 35.19712 | 67.99101 | 40246 ft | 544 kts | 128° |
| 2026-04-25 15:58 | 35.15423 | 68.06713 | 40238 ft | 543 kts | 127° |
| 2026-04-25 15:59 | 35.11180 | 68.14248 | 40258 ft | 544 kts | 127° |
| 2026-04-25 15:59 | 35.06882 | 68.21847 | 40260 ft | 544 kts | 127° |
| 2026-04-25 16:00 | 35.03978 | 68.26919 | 40261 ft | 546 kts | 128° |
| 2026-04-25 16:00 | 34.98090 | 68.36959 | 40268 ft | 546 kts | 128° |
| 2026-04-25 16:01 | 34.93660 | 68.44460 | 40260 ft | 544 kts | 129° |
| 2026-04-25 16:01 | 34.89236 | 68.51953 | 40250 ft | 545 kts | 128° |
| 2026-04-25 16:02 | 34.84802 | 68.59454 | 40228 ft | 545 kts | 128° |
| 2026-04-25 16:02 | 34.80358 | 68.66939 | 40190 ft | 545 kts | 128° |
| 2026-04-25 16:03 | 34.75917 | 68.74405 | 40179 ft | 544 kts | 128° |
| 2026-04-25 16:03 | 34.71508 | 68.81814 | 40164 ft | 544 kts | 128° |
| 2026-04-25 16:04 | 34.67074 | 68.89260 | 40140 ft | 544 kts | 127° |
| 2026-04-25 16:04 | 34.62619 | 68.96719 | 40134 ft | 545 kts | 127° |
| 2026-04-25 16:05 | 34.58157 | 69.04176 | 40110 ft | 545 kts | 127° |
| 2026-04-25 16:06 | 34.51621 | 69.15454 | 40092 ft | 545 kts | 119° |
| 2026-04-25 16:06 | 34.48013 | 69.23553 | 40087 ft | 546 kts | 117° |
| 2026-04-25 16:07 | 34.44538 | 69.31732 | 40075 ft | 545 kts | 117° |
| 2026-04-25 16:07 | 34.41094 | 69.39901 | 40070 ft | 543 kts | 117° |
| 2026-04-25 16:08 | 34.37646 | 69.48030 | 40081 ft | 543 kts | 117° |
| 2026-04-25 16:08 | 34.34187 | 69.56142 | 40073 ft | 542 kts | 117° |
| 2026-04-25 16:09 | 34.30722 | 69.64235 | 40082 ft | 541 kts | 117° |
| 2026-04-25 16:09 | 34.27283 | 69.72246 | 40049 ft | 540 kts | 117° |
| 2026-04-25 16:10 | 34.23828 | 69.80288 | 40058 ft | 538 kts | 117° |
| 2026-04-25 16:10 | 34.20370 | 69.88317 | 40061 ft | 539 kts | 118° |
| 2026-04-25 16:11 | 34.16905 | 69.96322 | 40042 ft | 536 kts | 118° |
| 2026-04-25 16:11 | 34.13425 | 70.04286 | 40038 ft | 536 kts | 118° |
| 2026-04-25 16:12 | 34.09940 | 70.12235 | 39995 ft | 535 kts | 118° |
| 2026-04-25 16:12 | 34.06453 | 70.20163 | 40024 ft | 535 kts | 118° |
| 2026-04-25 16:13 | 34.02971 | 70.28076 | 40024 ft | 533 kts | 118° |
| 2026-04-25 16:13 | 34.00081 | 70.34635 | 40011 ft | 532 kts | 118° |
| 2026-04-25 16:14 | 33.96605 | 70.42513 | 40016 ft | 532 kts | 119° |
| 2026-04-25 16:14 | 33.92765 | 70.50092 | 40013 ft | 528 kts | 133° |
| 2026-04-25 16:15 | 33.87706 | 70.56455 | 40036 ft | 527 kts | 139° |
| 2026-04-25 16:15 | 33.82376 | 70.62531 | 40017 ft | 528 kts | 140° |
| 2026-04-25 16:16 | 33.77000 | 70.68557 | 40011 ft | 528 kts | 140° |
| 2026-04-25 16:16 | 33.71668 | 70.74551 | 40004 ft | 528 kts | 140° |
| 2026-04-25 16:17 | 33.66302 | 70.80607 | 39997 ft | 530 kts | 140° |
| 2026-04-25 16:17 | 33.60931 | 70.86677 | 39879 ft | 530 kts | 140° |
| 2026-04-25 16:17 | 33.58248 | 70.89703 | 39654 ft | 529 kts | 140° |
| 2026-04-25 16:18 | 33.55573 | 70.92718 | 39419 ft | 527 kts | 140° |
| 2026-04-25 16:18 | 33.53820 | 70.94733 | 39250 ft | 527 kts | 136° |
| 2026-04-25 16:18 | 33.50928 | 70.99478 | 38950 ft | 531 kts | 117° |
| 2026-04-25 16:18 | 33.49591 | 71.03589 | 38680 ft | 530 kts | 102° |
| 2026-04-25 16:19 | 33.49093 | 71.07937 | 38075 ft | 527 kts | 88° |
| 2026-04-25 16:19 | 33.49124 | 71.12331 | 37281 ft | 526 kts | 83° |
| 2026-04-25 16:19 | 33.49357 | 71.16674 | 36482 ft | 518 kts | 81° |
| 2026-04-25 16:20 | 33.50017 | 71.25161 | 35007 ft | 504 kts | 79° |
| 2026-04-25 16:20 | 33.50341 | 71.29321 | 34292 ft | 499 kts | 80° |
| 2026-04-25 16:20 | 33.50924 | 71.37525 | 32779 ft | 489 kts | 81° |
| 2026-04-25 16:21 | 33.51188 | 71.41569 | 32009 ft | 484 kts | 81° |
| 2026-04-25 16:21 | 33.51436 | 71.45519 | 31275 ft | 479 kts | 82° |
| 2026-04-25 16:21 | 33.51680 | 71.49477 | 30563 ft | 474 kts | 82° |
| 2026-04-25 16:21 | 33.51917 | 71.53399 | 29835 ft | 469 kts | 83° |
| 2026-04-25 16:22 | 33.52151 | 71.57276 | 29041 ft | 464 kts | 83° |
| 2026-04-25 16:22 | 33.52382 | 71.61111 | 28251 ft | 459 kts | 83° |
| 2026-04-25 16:22 | 33.52609 | 71.64903 | 27481 ft | 454 kts | 83° |
| 2026-04-25 16:22 | 33.52833 | 71.68656 | 26728 ft | 448 kts | 83° |
| 2026-04-25 16:23 | 33.53054 | 71.72357 | 25985 ft | 443 kts | 83° |
| 2026-04-25 16:23 | 33.53270 | 71.76011 | 25325 ft | 436 kts | 83° |
| 2026-04-25 16:23 | 33.53481 | 71.79603 | 24735 ft | 427 kts | 83° |
| 2026-04-25 16:23 | 33.53686 | 71.83116 | 24171 ft | 419 kts | 83° |
| 2026-04-25 16:24 | 33.53888 | 71.86566 | 23613 ft | 411 kts | 83° |
| 2026-04-25 16:24 | 33.54089 | 71.89951 | 22989 ft | 403 kts | 83° |
| 2026-04-25 16:24 | 33.54286 | 71.93272 | 22347 ft | 396 kts | 84° |
| 2026-04-25 16:24 | 33.54479 | 71.96527 | 21716 ft | 389 kts | 84° |
| 2026-04-25 16:25 | 33.54668 | 71.99743 | 21092 ft | 383 kts | 84° |
| 2026-04-25 16:25 | 33.54785 | 72.01840 | 20685 ft | 379 kts | 85° |
| 2026-04-25 16:25 | 33.54846 | 72.06030 | 19889 ft | 372 kts | 89° |
| 2026-04-25 16:25 | 33.54838 | 72.09085 | 19319 ft | 367 kts | 89° |
| 2026-04-25 16:26 | 33.54827 | 72.12169 | 18737 ft | 367 kts | 89° |
| 2026-04-25 16:26 | 33.54817 | 72.15236 | 18169 ft | 368 kts | 90° |
| 2026-04-25 16:26 | 33.54808 | 72.18311 | 17522 ft | 370 kts | 89° |
| 2026-04-25 16:26 | 33.54798 | 72.21397 | 16880 ft | 370 kts | 89° |
| 2026-04-25 16:27 | 33.54788 | 72.24425 | 16274 ft | 370 kts | 89° |
| 2026-04-25 16:27 | 33.54778 | 72.27528 | 15661 ft | 369 kts | 89° |
| 2026-04-25 16:27 | 33.54767 | 72.30616 | 15142 ft | 360 kts | 89° |
| 2026-04-25 16:27 | 33.54755 | 72.33535 | 14934 ft | 349 kts | 89° |
| 2026-04-25 16:28 | 33.54744 | 72.36381 | 14866 ft | 335 kts | 89° |
| 2026-04-25 16:28 | 33.54728 | 72.39150 | 14551 ft | 331 kts | 90° |
| 2026-04-25 16:28 | 33.54485 | 72.41914 | 13972 ft | 338 kts | 102° |
| 2026-04-25 16:28 | 33.53741 | 72.44600 | 13300 ft | 339 kts | 111° |
| 2026-04-25 16:29 | 33.52832 | 72.47183 | 12632 ft | 333 kts | 113° |
| 2026-04-25 16:29 | 33.51913 | 72.49709 | 11972 ft | 328 kts | 113° |
| 2026-04-25 16:29 | 33.51010 | 72.52197 | 11323 ft | 323 kts | 112° |
| 2026-04-25 16:29 | 33.50121 | 72.54657 | 10688 ft | 319 kts | 112° |
| 2026-04-25 16:30 | 33.49301 | 72.57107 | 10058 ft | 315 kts | 105° |
| 2026-04-25 16:30 | 33.48795 | 72.59638 | 9463 ft | 308 kts | 98° |
| 2026-04-25 16:30 | 33.48434 | 72.62103 | 9133 ft | 292 kts | 97° |
| 2026-04-25 16:30 | 33.48108 | 72.64440 | 8869 ft | 278 kts | 97° |
| 2026-04-25 16:31 | 33.47795 | 72.66699 | 8581 ft | 273 kts | 97° |
| 2026-04-25 16:31 | 33.47483 | 72.68940 | 8251 ft | 273 kts | 97° |
| 2026-04-25 16:31 | 33.47169 | 72.71176 | 7955 ft | 272 kts | 97° |
| 2026-04-25 16:31 | 33.46854 | 72.73409 | 7646 ft | 271 kts | 97° |
| 2026-04-25 16:32 | 33.46539 | 72.75634 | 7336 ft | 270 kts | 97° |
| 2026-04-25 16:32 | 33.46225 | 72.77850 | 7039 ft | 270 kts | 97° |
| 2026-04-25 16:32 | 33.45915 | 72.80048 | 6719 ft | 266 kts | 97° |
| 2026-04-25 16:32 | 33.45604 | 72.82235 | 6405 ft | 266 kts | 98° |
| 2026-04-25 16:33 | 33.45296 | 72.84396 | 6068 ft | 267 kts | 98° |
| 2026-04-25 16:33 | 33.44980 | 72.86625 | 5727 ft | 278 kts | 98° |
| 2026-04-25 16:33 | 33.44659 | 72.88913 | 5385 ft | 278 kts | 98° |
| 2026-04-25 16:33 | 33.44342 | 72.91185 | 5087 ft | 274 kts | 98° |
| 2026-04-25 16:34 | 33.44024 | 72.93380 | 4999 ft | 260 kts | 98° |
| 2026-04-25 16:34 | 33.43716 | 72.95472 | 4996 ft | 252 kts | 99° |
| 2026-04-25 16:34 | 33.43414 | 72.97539 | 4989 ft | 252 kts | 99° |
| 2026-04-25 16:34 | 33.43112 | 72.99613 | 4992 ft | 252 kts | 99° |
| 2026-04-25 16:35 | 33.42819 | 73.01627 | 4988 ft | 239 kts | 99° |
| 2026-04-25 16:35 | 33.42621 | 73.03564 | 4908 ft | 232 kts | 88° |
| 2026-04-25 16:35 | 33.42905 | 73.05441 | 4578 ft | 229 kts | 64° |
| 2026-04-25 16:35 | 33.43854 | 73.06933 | 4152 ft | 226 kts | 33° |
| 2026-04-25 16:36 | 33.45297 | 73.07533 | 3796 ft | 218 kts | 359° |
| 2026-04-25 16:36 | 33.45799 | 73.07484 | 3739 ft | 212 kts | 347° |
| 2026-04-25 16:36 | 33.47929 | 73.06409 | 3703 ft | 197 kts | 332° |
| 2026-04-25 16:36 | 33.49104 | 73.05671 | 3683 ft | 183 kts | 332° |
| 2026-04-25 16:37 | 33.50189 | 73.04999 | 3700 ft | 171 kts | 331° |
| 2026-04-25 16:37 | 33.51044 | 73.04067 | 3710 ft | 168 kts | 304° |
| 2026-04-25 16:37 | 33.51542 | 73.02835 | 3682 ft | 159 kts | 290° |
| 2026-04-25 16:37 | 33.51817 | 73.01595 | 3700 ft | 152 kts | 284° |
| 2026-04-25 16:38 | 33.52024 | 73.00354 | 3687 ft | 152 kts | 282° |
| 2026-04-25 16:38 | 33.52217 | 72.99106 | 3706 ft | 151 kts | 282° |
| 2026-04-25 16:38 | 33.52410 | 72.97870 | 3699 ft | 151 kts | 283° |
| 2026-04-25 16:38 | 33.52606 | 72.96640 | 3680 ft | 153 kts | 283° |
| 2026-04-25 16:39 | 33.52806 | 72.95382 | 3518 ft | 153 kts | 283° |
| 2026-04-25 16:39 | 33.53001 | 72.94132 | 3328 ft | 152 kts | 283° |
| 2026-04-25 16:39 | 33.53195 | 72.92890 | 3133 ft | 151 kts | 284° |
| 2026-04-25 16:39 | 33.53388 | 72.91655 | 2926 ft | 151 kts | 284° |
| 2026-04-25 16:40 | 33.53583 | 72.90418 | 2746 ft | 152 kts | 283° |
| 2026-04-25 16:40 | 33.53776 | 72.89179 | 2554 ft | 153 kts | 283° |
| 2026-04-25 16:40 | 33.53975 | 72.87907 | 2356 ft | 154 kts | 281° |
| 2026-04-25 16:40 | 33.54157 | 72.86663 | 2150 ft | 153 kts | 280° |
| 2026-04-25 16:41 | 33.54356 | 72.85415 | 1953 ft | 152 kts | 281° |
| 2026-04-25 16:41 | 33.54494 | 72.84573 | 1815 ft | 152 kts | 281° |
| 2026-04-25 16:41 | 33.54815 | 72.82673 | 1769 ft | 30 kts | 293° |
| 2026-04-25 16:42 | 33.54886 | 72.82510 | 1769 ft | 16 kts | 310° |
| 2026-04-25 16:42 | 33.54943 | 72.82446 | 1769 ft | 0 kts | 328° |
| 2026-04-25 16:42 | 33.54946 | 72.82444 | 1768 ft | 0 kts | 328° |
| 2026-04-25 16:42 | 33.54951 | 72.82441 | 1767 ft | 4 kts | 330° |
| 2026-04-25 16:43 | 33.55009 | 72.82428 | 1769 ft | 12 kts | 6° |
| 2026-04-25 16:43 | 33.55122 | 72.82453 | 1771 ft | 20 kts | 14° |
| 2026-04-25 16:43 | 33.55195 | 72.82592 | 1772 ft | 26 kts | 96° |
| 2026-04-25 16:43 | 33.55156 | 72.82834 | 1771 ft | 31 kts | 102° |
| 2026-04-25 16:44 | 33.55213 | 72.83029 | 1773 ft | 15 kts | 46° |
| 2026-04-25 16:44 | 33.55263 | 72.83029 | 1770 ft | 7 kts | 318° |
| 2026-04-25 16:44 | 33.55274 | 72.83018 | 1773 ft | 0 kts | 319° |